Time;durP1;ratioP1;P1;durP2;ratioP2;P2;SDS_P1;SDS_P2;PMS_P1;PMS_P2;Temp;Humidity;BMP_temperature;BMP_pressure;BME280_temperature;BME280_humidity;BME280_pressure;Samples;Min_cycle;Max_cycle;Signal;HPM_P1;HPM_P2
2022/09/08 00:00:58;;;;;;;9.50;2.78;;;18.70;63.00;;;;;;5030264;28;20026;-83
2022/09/08 00:03:27;;;;;;;5.70;2.00;;;18.60;62.90;;;;;;5043455;28;20411;-83
2022/09/08 00:06:03;;;;;;;6.47;2.05;;;18.60;63.00;;;;;;5043719;28;20825;-84
2022/09/08 00:08:30;;;;;;;10.20;2.00;;;18.60;63.00;;;;;;5033952;28;20057;-83
2022/09/08 00:11:00;;;;;;;9.48;1.88;;;18.50;62.90;;;;;;5040120;28;20039;-83
2022/09/08 00:13:29;;;;;;;11.23;2.78;;;18.50;63.00;;;;;;5020659;28;20488;-84
2022/09/08 00:15:55;;;;;;;9.18;2.92;;;18.50;63.10;;;;;;5041827;28;20089;-84
2022/09/08 00:18:23;;;;;;;6.00;1.58;;;18.50;63.20;;;;;;5037231;28;20044;-86
2022/09/08 00:20:50;;;;;;;9.65;2.70;;;18.40;63.10;;;;;;5037962;28;20449;-83
2022/09/08 00:23:16;;;;;;;6.78;1.95;;;18.40;63.20;;;;;;5042802;28;20563;-83
2022/09/08 00:25:42;;;;;;;7.88;2.67;;;18.40;63.80;;;;;;5005702;28;20037;-84
2022/09/08 00:28:08;;;;;;;9.20;2.50;;;18.40;63.30;;;;;;5016812;28;20029;-84
2022/09/08 00:30:34;;;;;;;11.15;2.50;;;18.30;63.20;;;;;;5007468;28;20045;-83
2022/09/08 00:33:00;;;;;;;7.60;1.67;;;18.30;63.80;;;;;;5013987;28;20048;-84
2022/09/08 00:35:28;;;;;;;11.63;2.78;;;18.30;63.30;;;;;;5022393;28;20026;-83
2022/09/08 00:37:54;;;;;;;11.27;3.45;;;18.30;63.40;;;;;;5013884;28;20036;-83
2022/09/08 00:40:22;;;;;;;11.05;2.38;;;18.30;63.50;;;;;;5024052;28;20029;-83
2022/09/08 00:43:01;;;;;;;11.30;2.67;;;18.30;63.50;;;;;;5018740;28;20087;-83
2022/09/08 00:45:33;;;;;;;8.05;2.97;;;18.30;63.60;;;;;;5011465;28;20210;-84
2022/09/08 00:48:01;;;;;;;9.63;1.95;;;18.30;63.60;;;;;;5023031;28;20519;-83
2022/09/08 00:50:28;;;;;;;5.65;1.67;;;18.30;63.60;;;;;;5008609;28;20411;-83
2022/09/08 00:53:00;;;;;;;5.45;2.00;;;18.30;63.70;;;;;;5021567;28;20033;-83
2022/09/08 00:55:28;;;;;;;7.80;2.40;;;18.30;63.70;;;;;;5024379;28;20031;-83
2022/09/08 00:57:54;;;;;;;7.38;2.45;;;18.30;63.70;;;;;;5022239;28;20061;-83
2022/09/08 01:00:20;;;;;;;7.22;2.30;;;18.30;63.80;;;;;;5024403;28;20049;-84
2022/09/08 01:02:47;;;;;;;7.25;1.63;;;18.30;63.80;;;;;;5018760;28;20013;-83
2022/09/08 01:05:15;;;;;;;10.63;2.28;;;18.30;63.80;;;;;;5023988;28;20041;-83
2022/09/08 01:13:56;;;;;;;6.60;1.80;;;18.30;64.00;;;;;;5016998;28;20596;-82
2022/09/08 01:16:22;;;;;;;6.13;2.28;;;18.30;63.90;;;;;;5022143;28;20029;-83
2022/09/08 01:18:48;;;;;;;8.98;2.17;;;18.30;64.00;;;;;;5007372;28;20535;-83
2022/09/08 01:21:21;;;;;;;5.57;1.85;;;18.20;63.80;;;;;;5018189;28;20041;-84
2022/09/08 01:24:16;;;;;;;8.32;1.88;;;18.20;63.90;;;;;;5020036;28;20759;-83
2022/09/08 01:26:59;;;;;;;10.18;2.10;;;18.20;64.00;;;;;;5033654;28;20041;-82
2022/09/08 01:29:28;;;;;;;8.40;1.90;;;18.20;64.00;;;;;;5015941;28;20505;-83
2022/09/08 01:31:57;;;;;;;7.30;1.88;;;18.20;64.10;;;;;;5015986;28;20025;-83
2022/09/08 01:34:23;;;;;;;10.18;2.15;;;18.20;64.10;;;;;;5022911;28;20038;-82
2022/09/08 01:36:49;;;;;;;9.43;3.03;;;18.20;64.10;;;;;;5023239;28;20026;-83
2022/09/08 01:39:15;;;;;;;7.85;3.28;;;18.30;64.40;;;;;;5020759;28;20034;-83
2022/09/08 01:41:41;;;;;;;8.13;1.92;;;18.30;64.40;;;;;;5024346;28;20029;-83
2022/09/08 01:44:07;;;;;;;9.65;1.88;;;18.30;64.50;;;;;;5023594;28;20091;-84
2022/09/08 01:46:32;;;;;;;8.90;2.95;;;18.20;64.40;;;;;;5019115;28;20043;-82
2022/09/08 01:48:58;;;;;;;10.65;3.03;;;18.20;64.40;;;;;;5025595;28;20042;-83
2022/09/08 01:51:25;;;;;;;6.78;2.42;;;18.30;64.70;;;;;;5024655;28;20037;-84
2022/09/08 01:53:51;;;;;;;5.88;2.10;;;18.20;64.50;;;;;;5022100;28;20037;-82
2022/09/08 01:56:17;;;;;;;5.95;2.03;;;18.20;64.60;;;;;;5022252;28;20048;-84
2022/09/08 01:58:43;;;;;;;11.88;2.60;;;18.20;64.70;;;;;;5026300;28;20038;-83
2022/09/08 02:01:10;;;;;;;8.82;2.40;;;18.20;64.70;;;;;;5015460;28;20042;-82
2022/09/08 02:03:36;;;;;;;10.88;2.53;;;18.20;64.80;;;;;;5021736;28;20472;-83
2022/09/08 02:06:02;;;;;;;11.52;2.42;;;18.20;64.90;;;;;;5022832;28;20082;-82
2022/09/08 02:08:29;;;;;;;8.85;2.63;;;18.20;64.90;;;;;;5020328;28;20048;-83
2022/09/08 02:10:58;;;;;;;11.18;2.83;;;18.10;64.90;;;;;;5025268;28;20085;-83
2022/09/08 02:13:24;;;;;;;6.97;2.03;;;18.10;64.90;;;;;;5025843;28;20030;-84
2022/09/08 02:15:50;;;;;;;8.85;2.40;;;18.10;65.00;;;;;;5027021;28;20025;-84
2022/09/08 02:18:16;;;;;;;9.10;2.40;;;18.10;65.10;;;;;;5043489;28;20060;-83
2022/09/08 02:20:42;;;;;;;6.18;1.90;;;18.10;65.10;;;;;;5029052;28;20374;-84
2022/09/08 02:23:08;;;;;;;12.93;3.70;;;18.10;65.20;;;;;;5022718;28;20037;-83
2022/09/08 02:25:34;;;;;;;9.98;2.00;;;18.10;65.20;;;;;;5051634;28;20026;-81
2022/09/08 02:28:00;;;;;;;8.68;2.22;;;18.00;65.10;;;;;;5025618;28;20026;-79
2022/09/08 02:30:26;;;;;;;7.40;2.42;;;18.00;65.20;;;;;;5025561;28;20057;-81
2022/09/08 02:32:52;;;;;;;12.55;3.30;;;18.00;65.80;;;;;;5040459;28;20639;-81
2022/09/08 02:35:17;;;;;;;8.40;2.15;;;18.00;65.30;;;;;;5029513;28;20029;-81
2022/09/08 02:37:43;;;;;;;7.40;2.45;;;18.00;65.30;;;;;;5030270;28;20299;-80
2022/09/08 02:40:09;;;;;;;9.30;2.53;;;18.00;65.40;;;;;;5022018;28;20136;-82
2022/09/08 02:42:36;;;;;;;7.22;1.40;;;18.00;65.50;;;;;;5027080;28;20446;-82
2022/09/08 02:45:03;;;;;;;11.85;2.70;;;18.00;65.50;;;;;;5028945;28;20044;-81
2022/09/08 02:47:32;;;;;;;6.30;1.75;;;18.00;65.60;;;;;;5028168;28;20033;-82
2022/09/08 02:49:58;;;;;;;10.20;2.97;;;17.90;65.50;;;;;;5030787;28;20045;-81
2022/09/08 02:52:24;;;;;;;7.75;1.70;;;18.00;65.70;;;;;;5031420;28;20481;-83
2022/09/08 02:54:51;;;;;;;8.40;1.90;;;18.00;65.80;;;;;;5026001;28;20037;-82
2022/09/08 02:57:20;;;;;;;4.13;2.03;;;17.90;65.70;;;;;;5028414;28;20481;-82
2022/09/08 02:59:46;;;;;;;6.40;1.95;;;17.90;65.80;;;;;;5047097;28;20508;-81
2022/09/08 03:02:12;;;;;;;7.45;2.20;;;17.90;65.80;;;;;;5028895;28;20498;-81
2022/09/08 03:04:37;;;;;;;8.77;2.63;;;17.90;65.80;;;;;;5026787;28;20032;-82
2022/09/08 03:07:03;;;;;;;7.65;2.05;;;17.90;65.80;;;;;;5029949;28;20384;-81
2022/09/08 03:09:29;;;;;;;6.90;2.53;;;17.90;65.90;;;;;;5029873;28;20039;-80
2022/09/08 03:11:55;;;;;;;8.52;2.83;;;17.90;65.90;;;;;;5022782;28;20080;-82
2022/09/08 03:14:21;;;;;;;7.97;1.65;;;17.90;66.00;;;;;;5028873;28;20103;-82
2022/09/08 03:16:47;;;;;;;7.13;1.65;;;17.90;66.00;;;;;;5029668;28;20365;-82
2022/09/08 03:19:12;;;;;;;6.38;1.95;;;17.90;66.10;;;;;;5018065;28;20029;-82
2022/09/08 03:21:38;;;;;;;7.63;1.73;;;17.90;66.10;;;;;;5028489;28;20033;-83
2022/09/08 03:24:04;;;;;;;7.72;2.35;;;17.90;66.20;;;;;;5028178;28;20833;-82
2022/09/08 03:26:30;;;;;;;7.35;2.28;;;17.90;66.20;;;;;;5020280;28;20489;-82
2022/09/08 03:28:56;;;;;;;8.48;2.03;;;17.90;66.30;;;;;;5028773;28;20030;-81
2022/09/08 03:31:22;;;;;;;6.25;1.77;;;17.90;66.30;;;;;;5020605;28;20037;-81
2022/09/08 03:33:48;;;;;;;8.25;1.98;;;17.90;66.40;;;;;;5026386;28;20022;-81
2022/09/08 03:36:15;;;;;;;6.97;2.03;;;17.90;66.40;;;;;;5021784;28;20034;-81
2022/09/08 03:38:42;;;;;;;6.25;1.70;;;17.90;66.50;;;;;;5043436;28;20021;-81
2022/09/08 03:41:10;;;;;;;9.10;2.13;;;17.80;66.30;;;;;;5028614;28;20036;-81
2022/09/08 03:43:37;;;;;;;6.25;1.95;;;17.80;66.40;;;;;;5019084;28;20033;-82
2022/09/08 03:46:07;;;;;;;5.82;1.75;;;17.80;66.40;;;;;;5029458;28;20026;-82
2022/09/08 03:48:36;;;;;;;7.18;2.22;;;17.80;66.50;;;;;;5015078;28;20638;-82
2022/09/08 03:51:22;;;;;;;5.55;1.98;;;17.80;66.50;;;;;;5029063;28;20484;-81
2022/09/08 03:53:49;;;;;;;6.47;1.92;;;17.80;66.60;;;;;;5019135;28;20062;-83
2022/09/08 03:56:15;;;;;;;4.95;1.60;;;17.80;66.60;;;;;;5027584;28;20037;-84
2022/09/08 03:58:42;;;;;;;4.00;1.45;;;17.80;66.60;;;;;;5021161;28;20033;-83
2022/09/08 04:01:15;;;;;;;8.18;2.90;;;17.80;66.70;;;;;;5005075;28;20033;-84
2022/09/08 04:03:41;;;;;;;;;;;17.80;66.80;;;;;;5018964;28;20051;-84
2022/09/08 04:06:07;;;;;;;8.73;2.55;;;17.70;66.50;;;;;;5028858;28;20394;-84
2022/09/08 04:08:34;;;;;;;6.90;2.33;;;17.70;66.40;;;;;;5021720;28;20056;-85
2022/09/08 04:11:00;;;;;;;5.10;1.63;;;17.70;66.50;;;;;;5026404;28;20470;-85
2022/09/08 04:13:27;;;;;;;5.68;2.10;;;17.70;66.60;;;;;;5023088;28;20026;-85
2022/09/08 04:15:53;;;;;;;6.50;1.30;;;17.70;66.70;;;;;;5027189;28;20041;-85
2022/09/08 04:18:19;;;;;;;6.20;1.75;;;17.70;66.80;;;;;;5027687;28;20485;-85
2022/09/08 04:20:45;;;;;;;5.20;1.70;;;17.70;66.80;;;;;;5060694;28;20278;-84
2022/09/08 04:23:11;;;;;;;5.10;1.63;;;17.70;66.90;;;;;;5021555;28;20034;-84
2022/09/08 04:25:37;;;;;;;8.43;1.88;;;17.70;66.90;;;;;;5027081;28;20238;-85
2022/09/08 04:28:06;;;;;;;6.03;2.08;;;17.70;66.90;;;;;;5020298;28;20179;-84
2022/09/08 04:30:31;;;;;;;4.35;1.38;;;17.80;67.10;;;;;;5027292;28;20042;-83
2022/09/08 04:32:57;;;;;;;4.68;1.63;;;17.80;67.20;;;;;;5023373;28;20053;-83
2022/09/08 04:35:24;;;;;;;5.78;1.58;;;17.80;67.20;;;;;;5024078;28;20154;-84
2022/09/08 04:37:49;;;;;;;6.70;2.40;;;17.70;67.00;;;;;;5026256;28;20095;-82
2022/09/08 04:40:18;;;;;;;4.88;1.52;;;17.80;67.30;;;;;;5028704;28;20322;-83
2022/09/08 04:42:44;;;;;;;5.43;1.20;;;17.70;67.70;;;;;;5020434;28;20034;-84
2022/09/08 04:45:11;;;;;;;5.32;2.00;;;17.70;67.70;;;;;;5027704;28;20523;-84
2022/09/08 04:47:36;;;;;;;6.25;1.48;;;17.70;67.20;;;;;;5023209;28;20044;-82
2022/09/08 04:50:02;;;;;;;6.72;2.22;;;17.70;67.20;;;;;;5031564;28;20557;-82
2022/09/08 04:52:28;;;;;;;5.47;1.70;;;17.70;67.30;;;;;;5027904;28;20025;-84
2022/09/08 04:54:55;;;;;;;4.70;1.40;;;17.70;67.30;;;;;;5056139;28;20091;-83
2022/09/08 04:57:21;;;;;;;7.80;2.70;;;17.60;67.20;;;;;;5032518;28;20492;-84
2022/09/08 04:59:47;;;;;;;4.55;1.25;;;17.70;67.50;;;;;;5023364;28;20039;-83
2022/09/08 05:02:13;;;;;;;6.95;1.83;;;17.70;67.50;;;;;;5013021;28;20033;-83
2022/09/08 05:04:39;;;;;;;11.82;3.20;;;17.60;67.40;;;;;;5030444;28;20041;-84
2022/09/08 05:07:05;;;;;;;9.02;2.25;;;17.60;67.30;;;;;;5026407;28;20425;-83
2022/09/08 05:09:30;;;;;;;6.20;1.85;;;17.60;67.40;;;;;;5032798;28;20103;-84
2022/09/08 05:11:56;;;;;;;9.43;2.35;;;17.60;67.40;;;;;;5029978;28;20384;-83
2022/09/08 05:14:22;;;;;;;5.90;1.65;;;17.60;67.50;;;;;;5026595;28;20032;-82
2022/09/08 05:16:48;;;;;;;6.22;2.35;;;17.50;67.40;;;;;;5026580;28;20018;-81
2022/09/08 05:19:14;;;;;;;5.93;2.20;;;17.50;67.40;;;;;;5030701;28;20068;-82
2022/09/08 05:21:40;;;;;;;7.75;1.73;;;17.50;67.50;;;;;;5033357;28;20033;-83
2022/09/08 05:24:06;;;;;;;6.07;1.50;;;17.50;67.60;;;;;;5029612;28;20473;-82
2022/09/08 05:26:33;;;;;;;7.20;2.92;;;17.50;68.20;;;;;;5031261;28;20042;-87
2022/09/08 05:28:59;;;;;;;5.55;1.98;;;17.40;67.50;;;;;;5028424;28;20025;-89
2022/09/08 05:31:27;;;;;;;9.57;2.53;;;17.40;67.60;;;;;;5012420;28;20104;-87
2022/09/08 05:33:55;;;;;;;7.70;1.90;;;17.40;67.60;;;;;;5022155;28;20033;-88
2022/09/08 05:36:23;;;;;;;8.23;1.95;;;17.30;67.50;;;;;;5028716;28;20040;-86
2022/09/08 05:38:50;;;;;;;11.07;3.33;;;17.30;67.70;;;;;;5047019;28;20029;-87
2022/09/08 05:41:16;;;;;;;8.02;2.42;;;17.30;67.70;;;;;;5028011;28;20026;-88
2022/09/08 05:43:44;;;;;;;9.82;2.20;;;17.30;67.80;;;;;;5024433;28;20060;-91
2022/09/08 05:46:10;;;;;;;9.45;2.47;;;17.30;67.90;;;;;;5027094;28;20037;-86
2022/09/08 05:48:36;;;;;;;10.45;2.75;;;17.30;68.00;;;;;;5037351;28;20037;-84
2022/09/08 05:51:08;;;;;;;9.15;2.78;;;17.20;67.90;;;;;;5022970;28;20040;-91
2022/09/08 05:53:34;;;;;;;13.07;2.35;;;17.20;68.00;;;;;;5013473;28;20029;-88
2022/09/08 05:56:04;;;;;;;8.00;2.70;;;17.30;68.20;;;;;;5031771;28;20065;-83
2022/09/08 05:58:31;;;;;;;9.13;2.28;;;17.30;68.20;;;;;;5031638;28;20033;-87
2022/09/08 06:01:03;;;;;;;7.88;3.00;;;17.30;68.30;;;;;;5019745;28;20427;-87
2022/09/08 06:03:29;;;;;;;11.40;2.65;;;17.30;68.30;;;;;;5015449;28;20029;-88
2022/09/08 06:05:55;;;;;;;11.20;3.28;;;17.30;68.30;;;;;;5034243;28;20048;-89
2022/09/08 06:08:22;;;;;;;14.43;3.90;;;17.40;68.70;;;;;;5018149;28;20047;-95
2022/09/08 06:10:50;;;;;;;7.30;2.97;;;17.50;69.30;;;;;;5027291;28;20627;-90
2022/09/08 06:13:16;;;;;;;11.32;2.55;;;17.50;69.30;;;;;;5030571;28;20034;-93
2022/09/08 06:15:42;;;;;;;8.18;2.92;;;17.60;69.40;;;;;;5050751;28;20074;-91
2022/09/08 06:18:08;;;;;;;11.98;3.40;;;17.70;69.40;;;;;;5039099;28;20036;-89
2022/09/08 06:20:35;;;;;;;5.78;2.45;;;17.80;69.50;;;;;;5018980;28;20034;-87
2022/09/08 06:23:01;;;;;;;10.93;2.53;;;17.90;69.50;;;;;;5033605;28;20026;-91
2022/09/08 06:25:27;;;;;;;10.43;2.80;;;18.00;69.50;;;;;;5030513;28;20033;-87
2022/09/08 06:28:03;;;;;;;9.23;2.75;;;18.00;69.40;;;;;;5039625;28;20022;-93
2022/09/08 06:30:29;;;;;;;9.23;2.92;;;18.10;69.50;;;;;;5040969;28;20116;-95
2022/09/08 06:32:54;;;;;;;10.82;3.50;;;18.10;69.30;;;;;;5030909;28;20036;-92
2022/09/08 06:35:40;;;;;;;8.07;2.08;;;18.20;69.40;;;;;;5030425;28;20036;-91
2022/09/08 06:38:15;;;;;;;11.30;3.63;;;18.20;69.40;;;;;;5019762;28;20144;-94
2022/09/08 06:40:43;;;;;;;13.40;2.45;;;18.20;69.30;;;;;;5028415;28;20034;-90
2022/09/08 06:43:37;;;;;;;7.47;2.50;;;18.20;69.20;;;;;;5030509;28;20489;-93
2022/09/08 06:46:15;;;;;;;8.95;2.55;;;18.20;69.20;;;;;;5032623;28;20032;-89
2022/09/08 06:48:41;;;;;;;6.88;2.47;;;18.30;69.30;;;;;;5023455;28;20029;-90
2022/09/08 06:51:37;;;;;;;9.90;2.80;;;18.20;69.00;;;;;;5034761;28;20488;-88
2022/09/08 06:54:09;;;;;;;8.23;2.75;;;18.30;69.30;;;;;;4998716;28;20040;-89
2022/09/08 06:57:11;;;;;;;7.07;2.22;;;18.30;69.20;;;;;;5032599;28;20280;-90
2022/09/08 07:00:10;;;;;;;10.48;2.38;;;18.20;69.10;;;;;;5038406;28;20030;-95
2022/09/08 07:02:58;;;;;;;9.30;2.20;;;18.20;69.00;;;;;;5018733;28;20040;-94
2022/09/08 07:06:04;;;;;;;12.35;3.95;;;18.30;69.20;;;;;;5033025;28;20041;-95
2022/09/08 07:08:51;;;;;;;8.05;3.03;;;18.30;69.20;;;;;;5039064;28;20112;-95
2022/09/08 07:11:17;;;;;;;8.68;2.60;;;18.30;69.20;;;;;;5028047;28;20030;-91
2022/09/08 07:14:04;;;;;;;7.30;2.35;;;18.30;69.10;;;;;;5033184;28;20032;-92
2022/09/08 07:16:49;;;;;;;8.48;2.78;;;18.30;69.20;;;;;;5030831;28;20714;-94
2022/09/08 07:19:28;;;;;;;10.15;2.40;;;18.30;69.10;;;;;;5024907;28;20038;-90
2022/09/08 07:22:31;;;;;;;10.00;2.55;;;18.40;69.10;;;;;;5031641;28;20034;-92
2022/09/08 07:25:15;;;;;;;8.27;2.30;;;18.50;69.30;;;;;;5032499;28;20025;-87
2022/09/08 07:27:43;;;;;;;10.07;3.50;;;18.70;69.30;;;;;;5055250;28;20037;-87
2022/09/08 07:30:17;;;;;;;9.00;2.15;;;18.90;69.20;;;;;;5007069;28;20231;-87
2022/09/08 07:32:47;;;;;;;11.18;2.88;;;19.00;69.10;;;;;;5025318;28;20187;-86
2022/09/08 07:35:42;;;;;;;11.50;2.90;;;19.20;69.20;;;;;;5026777;28;20365;-88
2022/09/08 07:38:26;;;;;;;9.35;2.40;;;19.30;69.10;;;;;;5021461;28;20126;-90
2022/09/08 07:40:55;;;;;;;7.60;2.20;;;19.40;69.00;;;;;;5028105;28;20038;-94
2022/09/08 07:43:24;;;;;;;10.02;3.13;;;19.50;69.00;;;;;;5032880;28;20496;-94
2022/09/08 07:46:03;;;;;;;10.27;2.40;;;19.50;68.90;;;;;;5041372;28;20037;-93
2022/09/08 07:48:38;;;;;;;8.65;2.45;;;19.50;69.00;;;;;;5017365;28;20021;-88
2022/09/08 07:51:12;;;;;;;8.15;2.92;;;19.60;69.10;;;;;;5029925;28;20041;-90
2022/09/08 07:54:07;;;;;;;5.22;2.33;;;19.60;69.10;;;;;;5030087;28;20033;-91
2022/09/08 07:56:43;;;;;;;8.05;2.53;;;19.70;69.20;;;;;;5036449;28;20037;-90
2022/09/08 07:59:24;;;;;;;7.97;2.60;;;19.80;69.10;;;;;;5033097;28;20547;-94
2022/09/08 08:02:18;;;;;;;4.07;2.30;;;20.00;69.20;;;;;;5029471;28;20025;-90
2022/09/08 08:05:15;;;;;;;6.13;2.35;;;20.10;69.10;;;;;;5030914;28;20419;-87
2022/09/08 08:08:06;;;;;;;8.25;2.22;;;20.30;69.10;;;;;;5030379;28;20057;-88
2022/09/08 08:10:49;;;;;;;6.95;2.60;;;20.40;68.80;;;;;;5035528;28;20056;-85
2022/09/08 08:13:26;;;;;;;7.13;1.98;;;20.50;68.60;;;;;;5032223;28;20075;-93
2022/09/08 08:16:06;;;;;;;5.97;1.98;;;20.70;68.60;;;;;;5032649;28;20191;-91
2022/09/08 08:18:57;;;;;;;6.80;1.80;;;20.80;68.50;;;;;;5033696;28;20033;-92
2022/09/08 08:21:38;;;;;;;9.75;3.42;;;20.90;68.30;;;;;;5021436;28;20033;-92
2022/09/08 08:24:23;;;;;;;6.63;2.03;;;21.10;68.30;;;;;;5028850;28;20030;-95
2022/09/08 08:27:02;;;;;;;4.40;1.30;;;21.20;68.20;;;;;;5030125;28;20047;-91
2022/09/08 08:29:34;;;;;;;6.32;1.77;;;21.30;68.20;;;;;;5023948;28;20045;-91
2022/09/08 08:32:12;;;;;;;5.03;1.52;;;21.40;68.10;;;;;;5025400;28;20088;-90
2022/09/08 08:34:49;;;;;;;5.47;1.50;;;21.50;68.00;;;;;;5022745;28;20031;-90
2022/09/08 08:37:20;;;;;;;4.75;1.85;;;21.60;67.80;;;;;;5022473;28;20080;-83
2022/09/08 08:39:49;;;;;;;5.75;1.30;;;21.90;67.90;;;;;;5018943;28;20605;-86
2022/09/08 08:42:55;;;;;;;4.82;1.45;;;22.00;67.60;;;;;;5024049;28;20060;-89
2022/09/08 08:45:51;;;;;;;5.18;1.60;;;22.20;67.50;;;;;;5034188;28;20067;-91
2022/09/08 08:48:17;;;;;;;6.03;2.00;;;22.40;67.40;;;;;;5017199;28;20052;-94
2022/09/08 08:51:21;;;;;;;8.18;1.67;;;22.60;67.30;;;;;;5027346;28;20049;-89
2022/09/08 08:54:19;;;;;;;5.70;1.55;;;22.80;67.10;;;;;;4963448;28;20053;-92
2022/09/08 08:57:25;;;;;;;4.32;1.80;;;23.00;66.90;;;;;;4984298;28;20044;-91
2022/09/08 09:00:07;;;;;;;3.83;1.35;;;23.20;66.70;;;;;;5051060;28;20074;-94
2022/09/08 09:02:41;;;;;;;6.65;1.75;;;23.40;66.60;;;;;;5029878;28;20032;-91
2022/09/08 09:05:26;;;;;;;7.63;2.42;;;23.50;66.30;;;;;;5032324;28;20048;-86
2022/09/08 09:08:33;;;;;;;5.07;1.48;;;23.70;66.30;;;;;;5029497;28;20110;-83
2022/09/08 09:11:30;;;;;;;4.65;1.20;;;24.00;66.10;;;;;;5028486;28;20037;-86
2022/09/08 09:14:15;;;;;;;4.65;1.33;;;24.10;65.70;;;;;;5022954;28;20037;-83
2022/09/08 09:16:47;;;;;;;8.30;2.22;;;24.30;65.60;;;;;;5026796;28;20065;-85
2022/09/08 09:19:19;;;;;;;5.90;2.28;;;24.30;65.60;;;;;;5054468;28;20037;-88
2022/09/08 09:21:54;;;;;;;4.88;1.42;;;24.30;65.30;;;;;;5028683;28;20055;-86
2022/09/08 09:24:38;;;;;;;6.03;2.40;;;24.20;65.20;;;;;;5050721;28;20029;-91
2022/09/08 09:27:27;;;;;;;3.75;1.70;;;24.10;65.00;;;;;;5013075;28;20030;-96
2022/09/08 09:30:16;;;;;;;4.18;1.70;;;24.00;65.00;;;;;;5018341;28;20503;-96
2022/09/08 09:32:55;;;;;;;3.88;1.17;;;23.80;64.90;;;;;;5055375;28;20391;-92
2022/09/08 09:35:54;;;;;;;7.28;1.98;;;23.70;64.90;;;;;;5030877;28;20034;-91
2022/09/08 09:38:41;;;;;;;6.80;2.20;;;23.60;64.90;;;;;;5021089;28;20038;-89
2022/09/08 09:41:31;;;;;;;5.15;1.58;;;23.60;65.00;;;;;;5031333;28;20045;-90
2022/09/08 09:44:16;;;;;;;3.38;1.27;;;23.60;65.00;;;;;;5048357;28;20481;-94
2022/09/08 09:46:51;;;;;;;3.30;1.65;;;23.60;64.90;;;;;;5035532;28;20122;-95
2022/09/08 09:49:32;;;;;;;4.25;1.33;;;23.60;65.00;;;;;;5045391;28;20041;-94
2022/09/08 09:52:29;;;;;;;4.88;2.08;;;23.50;65.00;;;;;;5031776;28;20042;-93
2022/09/08 09:55:04;;;;;;;5.25;2.08;;;23.50;65.10;;;;;;5037268;28;20036;-93
2022/09/08 09:57:56;;;;;;;3.30;1.48;;;23.40;65.10;;;;;;5036544;28;20534;-86
2022/09/08 10:00:33;;;;;;;5.67;1.43;;;23.30;65.00;;;;;;5021900;28;20392;-90
2022/09/08 10:03:02;;;;;;;5.28;1.88;;;23.30;65.20;;;;;;5029899;28;20278;-93
2022/09/08 10:05:44;;;;;;;5.60;1.45;;;23.40;65.30;;;;;;5048057;28;20105;-93
2022/09/08 10:08:25;;;;;;;7.63;2.55;;;23.50;65.40;;;;;;5032666;28;20144;-89
2022/09/08 10:11:14;;;;;;;8.75;1.60;;;23.50;65.20;;;;;;5035319;28;20462;-94
2022/09/08 10:13:43;;;;;;;6.32;1.60;;;23.70;65.40;;;;;;5055239;28;20034;-88
2022/09/08 10:16:28;;;;;;;7.03;2.22;;;23.80;65.20;;;;;;5027827;28;20033;-89
2022/09/08 10:19:33;;;;;;;4.68;1.63;;;24.10;65.20;;;;;;5027037;28;20064;-88
2022/09/08 10:22:33;;;;;;;3.00;1.35;;;24.50;65.30;;;;;;5027299;28;20486;-88
2022/09/08 10:25:21;;;;;;;6.13;2.55;;;24.70;64.90;;;;;;5016965;28;20044;-87
2022/09/08 10:27:54;;;;;;;3.72;1.48;;;24.90;64.70;;;;;;5027205;28;20041;-88
2022/09/08 10:31:02;;;;;;;3.72;1.27;;;25.00;64.70;;;;;;5030941;28;20064;-86
2022/09/08 10:33:54;;;;;;;3.72;1.67;;;25.00;64.50;;;;;;5036980;28;20029;-89
2022/09/08 10:36:45;;;;;;;2.72;1.15;;;25.00;64.50;;;;;;5053407;28;20090;-89
2022/09/08 10:39:48;;;;;;;4.47;1.58;;;25.10;64.50;;;;;;5023994;28;20037;-88
2022/09/08 10:42:35;;;;;;;2.83;1.38;;;25.10;64.30;;;;;;5028210;28;20423;-89
2022/09/08 10:45:28;;;;;;;3.17;1.38;;;25.10;64.10;;;;;;5034587;28;20017;-90
2022/09/08 10:48:29;;;;;;;4.05;1.10;;;25.20;64.20;;;;;;5023926;28;20033;-91
2022/09/08 10:51:20;;;;;;;3.35;1.20;;;25.20;64.10;;;;;;5036904;28;20053;-92
2022/09/08 10:54:19;;;;;;;3.15;1.08;;;25.20;63.90;;;;;;5022061;28;20025;-93
2022/09/08 10:56:47;;;;;;;4.53;1.67;;;25.40;63.70;;;;;;5019190;28;20055;-90
2022/09/08 10:59:43;;;;;;;4.18;1.10;;;25.50;63.50;;;;;;5029370;28;20114;-93
2022/09/08 11:02:13;;;;;;;2.95;1.17;;;25.60;63.20;;;;;;5021346;28;20405;-87
2022/09/08 11:05:05;;;;;;;2.78;1.35;;;25.70;63.10;;;;;;5027371;28;20345;-91
2022/09/08 11:08:01;;;;;;;4.90;1.48;;;25.90;62.70;;;;;;5031306;28;20049;-85
2022/09/08 11:10:54;;;;;;;7.20;2.35;;;26.00;62.50;;;;;;5018577;28;20450;-86
2022/09/08 11:13:33;;;;;;;3.73;1.33;;;26.20;62.40;;;;;;5025200;28;20034;-86
2022/09/08 11:16:15;;;;;;;4.32;2.22;;;26.30;62.20;;;;;;5027892;28;20384;-89
2022/09/08 11:18:43;;;;;;;6.60;1.10;;;26.40;61.90;;;;;;5042933;28;20037;-96
2022/09/08 11:21:17;;;;;;;3.17;1.00;;;26.50;61.60;;;;;;5004740;28;20468;-85
2022/09/08 11:23:52;;;;;;;5.50;1.20;;;26.60;61.50;;;;;;5025605;28;20042;-90
2022/09/08 11:26:44;;;;;;;3.08;1.13;;;26.60;61.40;;;;;;5027068;28;20036;-83
2022/09/08 11:29:15;;;;;;;3.57;1.20;;;26.50;61.30;;;;;;5025220;28;20040;-83
2022/09/08 11:31:47;;;;;;;2.72;1.17;;;26.40;61.60;;;;;;5029093;28;20042;-85
2022/09/08 11:34:32;;;;;;;3.90;1.17;;;26.20;61.50;;;;;;5026801;28;20041;-86
2022/09/08 11:37:11;;;;;;;5.90;1.95;;;26.10;61.80;;;;;;5028307;28;20033;-85
2022/09/08 11:39:55;;;;;;;2.05;0.90;;;25.90;61.80;;;;;;5021812;28;20034;-85
2022/09/08 11:42:57;;;;;;;4.05;0.95;;;25.80;62.00;;;;;;5024582;28;20876;-84
2022/09/08 11:45:55;;;;;;;2.33;1.00;;;25.60;62.20;;;;;;5027148;28;20051;-85
2022/09/08 11:48:33;;;;;;;2.05;0.80;;;25.40;63.00;;;;;;5042168;28;20140;-96
2022/09/08 11:50:59;;;;;;;2.42;1.42;;;25.30;62.70;;;;;;5024268;28;20044;-96
2022/09/08 11:53:45;;;;;;;5.72;1.30;;;25.20;62.80;;;;;;5034315;28;20025;-92
2022/09/08 11:56:53;;;;;;;3.75;1.00;;;25.20;62.80;;;;;;5038607;28;20202;-96
2022/09/08 11:59:37;;;;;;;4.35;1.27;;;25.10;62.80;;;;;;5029917;28;20033;-92
2022/09/08 12:02:29;;;;;;;3.70;0.80;;;25.10;63.00;;;;;;5027286;28;20021;-84
2022/09/08 12:05:19;;;;;;;6.50;1.13;;;25.00;62.90;;;;;;5021218;28;20049;-85
2022/09/08 12:08:07;;;;;;;4.63;0.98;;;25.00;62.90;;;;;;5031764;28;20037;-84
2022/09/08 12:10:45;;;;;;;4.10;1.75;;;25.00;63.00;;;;;;5030720;28;20037;-85
2022/09/08 12:13:43;;;;;;;1.90;0.70;;;25.00;63.00;;;;;;5031237;28;20025;-95
2022/09/08 12:16:51;;;;;;;2.78;1.25;;;25.00;63.10;;;;;;5015134;28;20053;-96
2022/09/08 12:19:36;;;;;;;3.67;1.23;;;25.00;63.10;;;;;;5038953;28;20155;-95
2022/09/08 12:22:12;;;;;;;2.88;1.27;;;25.00;63.10;;;;;;5022868;28;20021;-84
2022/09/08 12:24:56;;;;;;;2.95;1.23;;;25.00;63.20;;;;;;5024593;28;20176;-86
2022/09/08 12:27:25;;;;;;;2.13;0.70;;;25.00;63.20;;;;;;5029116;28;20025;-86
2022/09/08 12:29:56;;;;;;;3.03;1.20;;;25.00;63.20;;;;;;5033824;28;20303;-95
2022/09/08 12:32:46;;;;;;;4.07;1.45;;;25.00;63.10;;;;;;5030549;28;20075;-83
2022/09/08 12:35:35;;;;;;;3.33;1.10;;;25.10;63.10;;;;;;5025882;28;20033;-85
2022/09/08 12:38:26;;;;;;;4.93;1.63;;;25.10;63.00;;;;;;5032897;28;20649;-91
2022/09/08 12:41:13;;;;;;;3.28;1.05;;;25.10;62.90;;;;;;5040026;28;20409;-93
2022/09/08 12:43:41;;;;;;;5.03;0.95;;;25.20;62.80;;;;;;5036474;28;20409;-96
2022/09/08 12:46:22;;;;;;;3.15;0.90;;;25.10;62.80;;;;;;5017100;28;20120;-90
2022/09/08 12:49:03;;;;;;;2.90;1.00;;;25.10;63.00;;;;;;5017560;28;20036;-91
2022/09/08 12:51:35;;;;;;;3.42;1.10;;;25.00;63.10;;;;;;5042794;28;20277;-92
2022/09/08 12:54:23;;;;;;;5.03;1.77;;;24.90;63.10;;;;;;5025214;28;20017;-91
2022/09/08 12:57:04;;;;;;;3.95;1.05;;;24.90;63.20;;;;;;5013716;28;20029;-91
2022/09/08 12:59:55;;;;;;;3.22;0.80;;;24.90;63.30;;;;;;5024514;28;20303;-92
2022/09/08 13:02:36;;;;;;;2.63;0.75;;;25.10;63.30;;;;;;5030024;28;20047;-92
2022/09/08 13:05:32;;;;;;;3.90;1.10;;;25.30;63.10;;;;;;5042406;28;20472;-94
2022/09/08 13:08:42;;;;;;;3.63;0.60;;;25.60;62.70;;;;;;5034927;28;20041;-94
2022/09/08 13:11:20;;;;;;;2.35;0.95;;;26.00;62.30;;;;;;5020208;28;20083;-94
2022/09/08 13:13:48;;;;;;;3.50;0.98;;;26.40;61.90;;;;;;5027819;28;20041;-93
2022/09/08 13:16:51;;;;;;;3.30;0.98;;;26.70;61.40;;;;;;5035803;28;20075;-96
2022/09/08 13:19:27;;;;;;;1.98;0.73;;;27.00;61.00;;;;;;5013209;28;20392;-92
2022/09/08 13:22:26;;;;;;;3.53;1.13;;;27.40;60.70;;;;;;5032132;28;20027;-90
2022/09/08 13:25:30;;;;;;;2.90;0.80;;;27.60;60.20;;;;;;5029260;28;20030;-89
2022/09/08 13:28:08;;;;;;;3.47;1.13;;;27.90;59.80;;;;;;5044366;28;20030;-92
2022/09/08 13:30:38;;;;;;;2.38;1.00;;;28.30;59.50;;;;;;5024018;28;20037;-92
2022/09/08 13:33:11;;;;;;;1.45;0.70;;;28.70;59.10;;;;;;5025628;28;20423;-89
2022/09/08 13:35:58;;;;;;;3.17;0.80;;;29.10;58.50;;;;;;5025975;28;20022;-91